Kildare, Texas
Current Conditions -  °F | °C
As of 6:55 AM on Saturday 22 Nov 2014 (Local Time) from KASL Reporting Station
Scattered Clouds Scattered Clouds  
Wind Chill: 51°   Ceiling: Unl
Heat Index: 51°   Visibility: 10mi
Dew Point: 48°   Wind: 0mph
Humidity: 89%   Direction: NA
Pressure: 30.16"   Gusts: NA
Location:  32.94°N, 94.25°W
Report Text: KASL 221255Z AUTO 00000KT 10SM SCT080 11/09 A3016 RMK AO1 T01050088
Loading
Personal Weather Stations






























Interactive Weather Map New forecast layout! Learn more

10-Day Weather Forecast

Advertisements
Track Severe Weather on mobile